sensor_id;sensor_type;location;lat;lon;timestamp;pressure;altitude;pressure_sealevel;temperature
65569;BMP180;52211;50.154;8.682;2022-08-16T00:01:25;99304.00;;;25.80
65569;BMP180;52211;50.154;8.682;2022-08-16T00:04:00;99298.00;;;25.80
65569;BMP180;52211;50.154;8.682;2022-08-16T00:06:30;99298.00;;;25.80
65569;BMP180;52211;50.154;8.682;2022-08-16T00:08:58;99294.00;;;25.80
65569;BMP180;52211;50.154;8.682;2022-08-16T00:11:29;99297.00;;;25.70
65569;BMP180;52211;50.154;8.682;2022-08-16T00:14:00;99296.00;;;25.70
65569;BMP180;52211;50.154;8.682;2022-08-16T00:16:34;99296.00;;;25.70
65569;BMP180;52211;50.154;8.682;2022-08-16T00:19:28;99293.00;;;25.70
65569;BMP180;52211;50.154;8.682;2022-08-16T00:22:08;99291.00;;;25.70
65569;BMP180;52211;50.154;8.682;2022-08-16T00:24:39;99294.00;;;25.70
65569;BMP180;52211;50.154;8.682;2022-08-16T00:27:15;99307.00;;;25.70
65569;BMP180;52211;50.154;8.682;2022-08-16T00:29:43;99306.00;;;25.70
65569;BMP180;52211;50.154;8.682;2022-08-16T00:32:14;99296.00;;;25.70
65569;BMP180;52211;50.154;8.682;2022-08-16T00:34:46;99310.00;;;25.70
65569;BMP180;52211;50.154;8.682;2022-08-16T00:37:23;99310.00;;;25.70
65569;BMP180;52211;50.154;8.682;2022-08-16T00:40:17;99305.00;;;25.60
65569;BMP180;52211;50.154;8.682;2022-08-16T00:43:13;99310.00;;;25.60
65569;BMP180;52211;50.154;8.682;2022-08-16T00:46:09;99316.00;;;25.60
65569;BMP180;52211;50.154;8.682;2022-08-16T00:49:02;99316.00;;;25.60
65569;BMP180;52211;50.154;8.682;2022-08-16T00:51:43;99317.00;;;25.50
65569;BMP180;52211;50.154;8.682;2022-08-16T00:54:13;99322.00;;;25.50
65569;BMP180;52211;50.154;8.682;2022-08-16T00:56:52;99314.00;;;25.50
65569;BMP180;52211;50.154;8.682;2022-08-16T00:59:33;99323.00;;;25.40
65569;BMP180;52211;50.154;8.682;2022-08-16T01:02:07;99315.00;;;25.40
65569;BMP180;52211;50.154;8.682;2022-08-16T01:04:56;99316.00;;;25.40
65569;BMP180;52211;50.154;8.682;2022-08-16T01:07:44;99309.00;;;25.40
65569;BMP180;52211;50.154;8.682;2022-08-16T01:10:25;99320.00;;;25.40
65569;BMP180;52211;50.154;8.682;2022-08-16T01:13:23;99317.00;;;25.40
65569;BMP180;52211;50.154;8.682;2022-08-16T01:18:44;99315.00;;;25.30
65569;BMP180;52211;50.154;8.682;2022-08-16T01:21:57;99319.00;;;25.30
65569;BMP180;52211;50.154;8.682;2022-08-16T01:24:52;99310.00;;;25.30
65569;BMP180;52211;50.154;8.682;2022-08-16T01:27:26;99304.00;;;25.30
65569;BMP180;52211;50.154;8.682;2022-08-16T01:30:16;99312.00;;;25.20
65569;BMP180;52211;50.154;8.682;2022-08-16T01:32:51;99309.00;;;25.20
65569;BMP180;52211;50.154;8.682;2022-08-16T01:38:35;99308.00;;;25.10
65569;BMP180;52211;50.154;8.682;2022-08-16T01:41:20;99311.00;;;25.10
65569;BMP180;52211;50.154;8.682;2022-08-16T01:43:51;99308.00;;;25.10
65569;BMP180;52211;50.154;8.682;2022-08-16T01:46:29;99299.00;;;25.10
65569;BMP180;52211;50.154;8.682;2022-08-16T01:49:13;99297.00;;;25.10
65569;BMP180;52211;50.154;8.682;2022-08-16T01:51:44;99300.00;;;25.10
65569;BMP180;52211;50.154;8.682;2022-08-16T01:54:14;99300.00;;;25.10
65569;BMP180;52211;50.154;8.682;2022-08-16T01:56:44;99311.00;;;25.10
65569;BMP180;52211;50.154;8.682;2022-08-16T01:59:14;99314.00;;;25.10
65569;BMP180;52211;50.154;8.682;2022-08-16T02:01:47;99314.00;;;25.10
65569;BMP180;52211;50.154;8.682;2022-08-16T02:04:29;99314.00;;;25.10
65569;BMP180;52211;50.154;8.682;2022-08-16T02:07:18;99321.00;;;25.10
65569;BMP180;52211;50.154;8.682;2022-08-16T02:09:49;99320.00;;;25.00
65569;BMP180;52211;50.154;8.682;2022-08-16T02:12:29;99314.00;;;25.00
65569;BMP180;52211;50.154;8.682;2022-08-16T02:15:20;99315.00;;;25.00
65569;BMP180;52211;50.154;8.682;2022-08-16T02:17:56;99313.00;;;25.00
65569;BMP180;52211;50.154;8.682;2022-08-16T02:20:26;99307.00;;;25.00
65569;BMP180;52211;50.154;8.682;2022-08-16T02:22:58;99307.00;;;25.00
65569;BMP180;52211;50.154;8.682;2022-08-16T02:25:30;99298.00;;;24.90
65569;BMP180;52211;50.154;8.682;2022-08-16T02:28:18;99298.00;;;24.90
65569;BMP180;52211;50.154;8.682;2022-08-16T02:30:48;99299.00;;;24.90
65569;BMP180;52211;50.154;8.682;2022-08-16T02:33:23;99305.00;;;24.90
65569;BMP180;52211;50.154;8.682;2022-08-16T02:36:14;99309.00;;;24.90
65569;BMP180;52211;50.154;8.682;2022-08-16T02:39:04;99308.00;;;24.90
65569;BMP180;52211;50.154;8.682;2022-08-16T02:41:34;99305.00;;;24.90
65569;BMP180;52211;50.154;8.682;2022-08-16T02:44:07;99307.00;;;24.90
65569;BMP180;52211;50.154;8.682;2022-08-16T02:46:34;99309.00;;;24.90
65569;BMP180;52211;50.154;8.682;2022-08-16T02:49:06;99306.00;;;24.80
65569;BMP180;52211;50.154;8.682;2022-08-16T02:51:36;99307.00;;;24.80
65569;BMP180;52211;50.154;8.682;2022-08-16T02:54:09;99306.00;;;24.80
65569;BMP180;52211;50.154;8.682;2022-08-16T02:56:41;99297.00;;;24.80
65569;BMP180;52211;50.154;8.682;2022-08-16T02:59:16;99312.00;;;24.80
65569;BMP180;52211;50.154;8.682;2022-08-16T03:01:49;99300.00;;;24.80
65569;BMP180;52211;50.154;8.682;2022-08-16T03:04:19;99306.00;;;24.80
65569;BMP180;52211;50.154;8.682;2022-08-16T03:07:09;99297.00;;;24.80
65569;BMP180;52211;50.154;8.682;2022-08-16T03:09:40;99300.00;;;24.80
65569;BMP180;52211;50.154;8.682;2022-08-16T03:12:17;99300.00;;;24.70
65569;BMP180;52211;50.154;8.682;2022-08-16T03:14:47;99305.00;;;24.70
65569;BMP180;52211;50.154;8.682;2022-08-16T03:17:19;99315.00;;;24.70
65569;BMP180;52211;50.154;8.682;2022-08-16T03:19:47;99313.00;;;24.70
65569;BMP180;52211;50.154;8.682;2022-08-16T03:22:28;99317.00;;;24.60
65569;BMP180;52211;50.154;8.682;2022-08-16T03:25:01;99316.00;;;24.60
65569;BMP180;52211;50.154;8.682;2022-08-16T03:27:32;99315.00;;;24.60
65569;BMP180;52211;50.154;8.682;2022-08-16T03:30:07;99310.00;;;24.50
65569;BMP180;52211;50.154;8.682;2022-08-16T03:32:47;99321.00;;;24.50
65569;BMP180;52211;50.154;8.682;2022-08-16T03:35:23;99312.00;;;24.50
65569;BMP180;52211;50.154;8.682;2022-08-16T03:38:02;99321.00;;;24.50
65569;BMP180;52211;50.154;8.682;2022-08-16T03:40:52;99315.00;;;24.50
65569;BMP180;52211;50.154;8.682;2022-08-16T03:43:19;99319.00;;;24.50
65569;BMP180;52211;50.154;8.682;2022-08-16T03:45:49;99312.00;;;24.50
65569;BMP180;52211;50.154;8.682;2022-08-16T03:48:27;99317.00;;;24.40
65569;BMP180;52211;50.154;8.682;2022-08-16T03:51:10;99309.00;;;24.40
65569;BMP180;52211;50.154;8.682;2022-08-16T03:53:43;99317.00;;;24.30
65569;BMP180;52211;50.154;8.682;2022-08-16T03:56:27;99311.00;;;24.30
65569;BMP180;52211;50.154;8.682;2022-08-16T03:58:59;99309.00;;;24.30
65569;BMP180;52211;50.154;8.682;2022-08-16T04:01:27;99307.00;;;24.30
65569;BMP180;52211;50.154;8.682;2022-08-16T04:03:59;99320.00;;;24.30
65569;BMP180;52211;50.154;8.682;2022-08-16T04:06:31;99321.00;;;24.30
65569;BMP180;52211;50.154;8.682;2022-08-16T04:09:00;99318.00;;;24.30
65569;BMP180;52211;50.154;8.682;2022-08-16T04:11:38;99308.00;;;24.20
65569;BMP180;52211;50.154;8.682;2022-08-16T04:14:05;99310.00;;;24.20
65569;BMP180;52211;50.154;8.682;2022-08-16T04:16:37;99311.00;;;24.20
65569;BMP180;52211;50.154;8.682;2022-08-16T04:19:04;99310.00;;;24.20
65569;BMP180;52211;50.154;8.682;2022-08-16T04:21:33;99315.00;;;24.20
65569;BMP180;52211;50.154;8.682;2022-08-16T04:24:05;99314.00;;;24.30
65569;BMP180;52211;50.154;8.682;2022-08-16T04:26:40;99325.00;;;24.30
65569;BMP180;52211;50.154;8.682;2022-08-16T04:29:14;99329.00;;;24.30
65569;BMP180;52211;50.154;8.682;2022-08-16T04:31:53;99326.00;;;24.30
65569;BMP180;52211;50.154;8.682;2022-08-16T04:34:28;99319.00;;;24.30
65569;BMP180;52211;50.154;8.682;2022-08-16T04:36:57;99324.00;;;24.20
65569;BMP180;52211;50.154;8.682;2022-08-16T04:39:32;99327.00;;;24.20
65569;BMP180;52211;50.154;8.682;2022-08-16T04:42:15;99327.00;;;24.20
65569;BMP180;52211;50.154;8.682;2022-08-16T04:44:46;99331.00;;;24.20
65569;BMP180;52211;50.154;8.682;2022-08-16T04:47:26;99332.00;;;24.20
65569;BMP180;52211;50.154;8.682;2022-08-16T04:50:01;99328.00;;;24.20
65569;BMP180;52211;50.154;8.682;2022-08-16T04:52:28;99333.00;;;24.20
65569;BMP180;52211;50.154;8.682;2022-08-16T04:55:13;99326.00;;;24.10
65569;BMP180;52211;50.154;8.682;2022-08-16T04:57:45;99330.00;;;24.10
65569;BMP180;52211;50.154;8.682;2022-08-16T05:00:31;99330.00;;;24.10
65569;BMP180;52211;50.154;8.682;2022-08-16T05:03:08;99324.00;;;24.10
65569;BMP180;52211;50.154;8.682;2022-08-16T05:05:40;99332.00;;;24.10
65569;BMP180;52211;50.154;8.682;2022-08-16T05:08:13;99327.00;;;24.10
65569;BMP180;52211;50.154;8.682;2022-08-16T05:11:12;99339.00;;;24.10
65569;BMP180;52211;50.154;8.682;2022-08-16T05:13:45;99331.00;;;24.10
65569;BMP180;52211;50.154;8.682;2022-08-16T05:16:18;99331.00;;;24.10
65569;BMP180;52211;50.154;8.682;2022-08-16T05:18:57;99338.00;;;24.00
65569;BMP180;52211;50.154;8.682;2022-08-16T05:21:28;99343.00;;;24.00
65569;BMP180;52211;50.154;8.682;2022-08-16T05:24:01;99349.00;;;24.00
65569;BMP180;52211;50.154;8.682;2022-08-16T05:26:32;99349.00;;;24.00
65569;BMP180;52211;50.154;8.682;2022-08-16T05:29:03;99343.00;;;24.00
65569;BMP180;52211;50.154;8.682;2022-08-16T05:31:38;99347.00;;;24.00
65569;BMP180;52211;50.154;8.682;2022-08-16T05:34:21;99347.00;;;24.10
65569;BMP180;52211;50.154;8.682;2022-08-16T05:36:51;99349.00;;;24.10
65569;BMP180;52211;50.154;8.682;2022-08-16T05:39:24;99351.00;;;24.10
65569;BMP180;52211;50.154;8.682;2022-08-16T05:41:54;99356.00;;;24.10
65569;BMP180;52211;50.154;8.682;2022-08-16T05:44:23;99355.00;;;24.10
65569;BMP180;52211;50.154;8.682;2022-08-16T05:46:57;99362.00;;;24.20
65569;BMP180;52211;50.154;8.682;2022-08-16T05:49:30;99364.00;;;24.20
65569;BMP180;52211;50.154;8.682;2022-08-16T05:52:10;99365.00;;;24.20
65569;BMP180;52211;50.154;8.682;2022-08-16T05:54:46;99371.00;;;24.30
65569;BMP180;52211;50.154;8.682;2022-08-16T05:57:27;99371.00;;;24.30
65569;BMP180;52211;50.154;8.682;2022-08-16T06:00:07;99377.00;;;24.30
65569;BMP180;52211;50.154;8.682;2022-08-16T06:02:36;99374.00;;;24.30
65569;BMP180;52211;50.154;8.682;2022-08-16T06:05:05;99374.00;;;24.30
65569;BMP180;52211;50.154;8.682;2022-08-16T06:07:39;99375.00;;;24.40
65569;BMP180;52211;50.154;8.682;2022-08-16T06:10:07;99381.00;;;24.40
65569;BMP180;52211;50.154;8.682;2022-08-16T06:12:38;99375.00;;;24.40
65569;BMP180;52211;50.154;8.682;2022-08-16T06:15:12;99384.00;;;24.40
65569;BMP180;52211;50.154;8.682;2022-08-16T06:17:45;99381.00;;;24.40
65569;BMP180;52211;50.154;8.682;2022-08-16T06:20:26;99385.00;;;24.40
65569;BMP180;52211;50.154;8.682;2022-08-16T06:23:03;99385.00;;;24.40
65569;BMP180;52211;50.154;8.682;2022-08-16T06:25:43;99388.00;;;24.50
65569;BMP180;52211;50.154;8.682;2022-08-16T06:28:21;99389.00;;;24.50
65569;BMP180;52211;50.154;8.682;2022-08-16T06:31:07;99383.00;;;24.50
65569;BMP180;52211;50.154;8.682;2022-08-16T06:33:41;99386.00;;;24.60
65569;BMP180;52211;50.154;8.682;2022-08-16T06:36:12;99384.00;;;24.60
65569;BMP180;52211;50.154;8.682;2022-08-16T06:38:44;99394.00;;;24.70
65569;BMP180;52211;50.154;8.682;2022-08-16T06:41:22;99394.00;;;24.70
65569;BMP180;52211;50.154;8.682;2022-08-16T06:43:55;99389.00;;;24.70
65569;BMP180;52211;50.154;8.682;2022-08-16T06:46:28;99395.00;;;24.80
65569;BMP180;52211;50.154;8.682;2022-08-16T06:49:04;99400.00;;;24.80
65569;BMP180;52211;50.154;8.682;2022-08-16T06:51:32;99395.00;;;24.90
65569;BMP180;52211;50.154;8.682;2022-08-16T06:54:14;99382.00;;;25.00
65569;BMP180;52211;50.154;8.682;2022-08-16T06:56:41;99384.00;;;25.00
65569;BMP180;52211;50.154;8.682;2022-08-16T06:59:09;99394.00;;;25.10
65569;BMP180;52211;50.154;8.682;2022-08-16T07:01:38;99389.00;;;25.10
65569;BMP180;52211;50.154;8.682;2022-08-16T07:04:17;99396.00;;;25.20
65569;BMP180;52211;50.154;8.682;2022-08-16T07:07:00;99400.00;;;25.30
65569;BMP180;52211;50.154;8.682;2022-08-16T07:09:29;99397.00;;;25.30
65569;BMP180;52211;50.154;8.682;2022-08-16T07:11:58;99397.00;;;25.30
65569;BMP180;52211;50.154;8.682;2022-08-16T07:14:32;99397.00;;;25.30
65569;BMP180;52211;50.154;8.682;2022-08-16T07:17:01;99399.00;;;25.30
65569;BMP180;52211;50.154;8.682;2022-08-16T07:19:37;99404.00;;;25.30
65569;BMP180;52211;50.154;8.682;2022-08-16T07:22:30;99405.00;;;25.40
65569;BMP180;52211;50.154;8.682;2022-08-16T07:25:08;99403.00;;;25.40
65569;BMP180;52211;50.154;8.682;2022-08-16T07:27:38;99406.00;;;25.50
65569;BMP180;52211;50.154;8.682;2022-08-16T07:30:13;99401.00;;;25.50
65569;BMP180;52211;50.154;8.682;2022-08-16T07:33:03;99410.00;;;25.60
65569;BMP180;52211;50.154;8.682;2022-08-16T07:35:33;99403.00;;;25.70
65569;BMP180;52211;50.154;8.682;2022-08-16T07:38:14;99401.00;;;25.70
65569;BMP180;52211;50.154;8.682;2022-08-16T07:40:45;99393.00;;;25.80
65569;BMP180;52211;50.154;8.682;2022-08-16T07:43:27;99394.00;;;25.80
65569;BMP180;52211;50.154;8.682;2022-08-16T07:45:57;99397.00;;;25.90
65569;BMP180;52211;50.154;8.682;2022-08-16T07:48:27;99403.00;;;26.00
65569;BMP180;52211;50.154;8.682;2022-08-16T07:50:56;99402.00;;;26.00
65569;BMP180;52211;50.154;8.682;2022-08-16T07:53:30;99400.00;;;26.10
65569;BMP180;52211;50.154;8.682;2022-08-16T07:56:09;99400.00;;;26.20
65569;BMP180;52211;50.154;8.682;2022-08-16T07:58:41;99404.00;;;26.20
65569;BMP180;52211;50.154;8.682;2022-08-16T08:01:09;99408.00;;;26.30
65569;BMP180;52211;50.154;8.682;2022-08-16T08:03:45;99411.00;;;26.40
65569;BMP180;52211;50.154;8.682;2022-08-16T08:06:24;99413.00;;;26.50
65569;BMP180;52211;50.154;8.682;2022-08-16T08:08:54;99417.00;;;26.50
65569;BMP180;52211;50.154;8.682;2022-08-16T08:11:28;99411.00;;;26.60
65569;BMP180;52211;50.154;8.682;2022-08-16T08:14:00;99416.00;;;26.70
65569;BMP180;52211;50.154;8.682;2022-08-16T08:16:31;99414.00;;;26.70
65569;BMP180;52211;50.154;8.682;2022-08-16T08:19:04;99419.00;;;26.80
65569;BMP180;52211;50.154;8.682;2022-08-16T08:21:39;99425.00;;;26.80
65569;BMP180;52211;50.154;8.682;2022-08-16T08:24:29;99418.00;;;26.90
65569;BMP180;52211;50.154;8.682;2022-08-16T08:27:00;99427.00;;;27.00
65569;BMP180;52211;50.154;8.682;2022-08-16T08:29:32;99432.00;;;27.00
65569;BMP180;52211;50.154;8.682;2022-08-16T08:32:11;99430.00;;;27.00
65569;BMP180;52211;50.154;8.682;2022-08-16T08:34:58;99418.00;;;27.10
65569;BMP180;52211;50.154;8.682;2022-08-16T08:37:32;99418.00;;;27.10
65569;BMP180;52211;50.154;8.682;2022-08-16T08:40:22;99422.00;;;27.20
65569;BMP180;52211;50.154;8.682;2022-08-16T08:42:57;99417.00;;;27.30
65569;BMP180;52211;50.154;8.682;2022-08-16T08:45:41;99414.00;;;27.40
65569;BMP180;52211;50.154;8.682;2022-08-16T08:48:16;99424.00;;;27.50
65569;BMP180;52211;50.154;8.682;2022-08-16T08:51:07;99424.00;;;27.50
65569;BMP180;52211;50.154;8.682;2022-08-16T08:53:40;99427.00;;;27.50
65569;BMP180;52211;50.154;8.682;2022-08-16T08:56:11;99426.00;;;27.60
65569;BMP180;52211;50.154;8.682;2022-08-16T08:58:55;99422.00;;;27.70
65569;BMP180;52211;50.154;8.682;2022-08-16T09:01:36;99422.00;;;27.70
65569;BMP180;52211;50.154;8.682;2022-08-16T09:04:22;99429.00;;;27.80
65569;BMP180;52211;50.154;8.682;2022-08-16T09:06:50;99426.00;;;27.90
65569;BMP180;52211;50.154;8.682;2022-08-16T09:09:22;99435.00;;;27.90
65569;BMP180;52211;50.154;8.682;2022-08-16T09:11:54;99423.00;;;28.00
65569;BMP180;52211;50.154;8.682;2022-08-16T09:14:35;99443.00;;;28.00
65569;BMP180;52211;50.154;8.682;2022-08-16T09:17:17;99442.00;;;28.10
65569;BMP180;52211;50.154;8.682;2022-08-16T09:20:08;99443.00;;;28.20
65569;BMP180;52211;50.154;8.682;2022-08-16T09:22:40;99439.00;;;28.30
65569;BMP180;52211;50.154;8.682;2022-08-16T09:25:09;99445.00;;;28.40
65569;BMP180;52211;50.154;8.682;2022-08-16T09:27:39;99446.00;;;28.40
65569;BMP180;52211;50.154;8.682;2022-08-16T09:30:26;99439.00;;;28.40
65569;BMP180;52211;50.154;8.682;2022-08-16T09:33:07;99442.00;;;28.50
65569;BMP180;52211;50.154;8.682;2022-08-16T09:35:36;99441.00;;;28.60
65569;BMP180;52211;50.154;8.682;2022-08-16T09:38:05;99441.00;;;28.60
65569;BMP180;52211;50.154;8.682;2022-08-16T09:40:39;99442.00;;;28.70
65569;BMP180;52211;50.154;8.682;2022-08-16T09:43:17;99440.00;;;28.80
65569;BMP180;52211;50.154;8.682;2022-08-16T09:46:07;99438.00;;;28.90
65569;BMP180;52211;50.154;8.682;2022-08-16T09:48:56;99441.00;;;29.00
65569;BMP180;52211;50.154;8.682;2022-08-16T09:51:31;99444.00;;;29.10
65569;BMP180;52211;50.154;8.682;2022-08-16T09:54:04;99440.00;;;29.20
65569;BMP180;52211;50.154;8.682;2022-08-16T09:56:38;99447.00;;;29.30
65569;BMP180;52211;50.154;8.682;2022-08-16T09:59:25;99435.00;;;29.30
65569;BMP180;52211;50.154;8.682;2022-08-16T10:01:59;99439.00;;;29.40
65569;BMP180;52211;50.154;8.682;2022-08-16T10:04:46;99443.00;;;29.40
65569;BMP180;52211;50.154;8.682;2022-08-16T10:07:25;99444.00;;;29.50
65569;BMP180;52211;50.154;8.682;2022-08-16T10:10:13;99445.00;;;29.50
65569;BMP180;52211;50.154;8.682;2022-08-16T10:12:59;99440.00;;;29.60
65569;BMP180;52211;50.154;8.682;2022-08-16T10:15:44;99443.00;;;29.60
65569;BMP180;52211;50.154;8.682;2022-08-16T10:18:24;99441.00;;;29.60
65569;BMP180;52211;50.154;8.682;2022-08-16T10:21:13;99432.00;;;29.60
65569;BMP180;52211;50.154;8.682;2022-08-16T10:23:42;99436.00;;;29.60
65569;BMP180;52211;50.154;8.682;2022-08-16T10:26:14;99427.00;;;29.60
65569;BMP180;52211;50.154;8.682;2022-08-16T10:29:03;99429.00;;;29.60
65569;BMP180;52211;50.154;8.682;2022-08-16T10:31:34;99428.00;;;29.70
65569;BMP180;52211;50.154;8.682;2022-08-16T10:34:16;99436.00;;;29.80
65569;BMP180;52211;50.154;8.682;2022-08-16T10:37:01;99432.00;;;30.00
65569;BMP180;52211;50.154;8.682;2022-08-16T10:39:29;99434.00;;;30.00
65569;BMP180;52211;50.154;8.682;2022-08-16T10:42:09;99429.00;;;30.10
65569;BMP180;52211;50.154;8.682;2022-08-16T10:44:40;99434.00;;;30.10
65569;BMP180;52211;50.154;8.682;2022-08-16T10:47:11;99437.00;;;30.20
65569;BMP180;52211;50.154;8.682;2022-08-16T10:49:43;99431.00;;;30.20
65569;BMP180;52211;50.154;8.682;2022-08-16T10:52:12;99425.00;;;30.30
65569;BMP180;52211;50.154;8.682;2022-08-16T10:54:44;99430.00;;;30.30
65569;BMP180;52211;50.154;8.682;2022-08-16T10:57:33;99428.00;;;30.40
65569;BMP180;52211;50.154;8.682;2022-08-16T11:00:16;99423.00;;;30.60
65569;BMP180;52211;50.154;8.682;2022-08-16T11:02:49;99433.00;;;30.60
65569;BMP180;52211;50.154;8.682;2022-08-16T11:05:35;99431.00;;;30.70
65569;BMP180;52211;50.154;8.682;2022-08-16T11:08:22;99430.00;;;30.80
65569;BMP180;52211;50.154;8.682;2022-08-16T11:11:05;99439.00;;;30.80
65569;BMP180;52211;50.154;8.682;2022-08-16T11:13:44;99433.00;;;30.90
65569;BMP180;52211;50.154;8.682;2022-08-16T11:16:35;99431.00;;;31.00
65569;BMP180;52211;50.154;8.682;2022-08-16T11:19:24;99443.00;;;31.10
65569;BMP180;52211;50.154;8.682;2022-08-16T11:21:53;99441.00;;;31.10
65569;BMP180;52211;50.154;8.682;2022-08-16T11:24:43;99442.00;;;31.20
65569;BMP180;52211;50.154;8.682;2022-08-16T11:27:34;99447.00;;;31.30
65569;BMP180;52211;50.154;8.682;2022-08-16T11:30:05;99451.00;;;31.40
65569;BMP180;52211;50.154;8.682;2022-08-16T11:32:40;99447.00;;;31.60
65569;BMP180;52211;50.154;8.682;2022-08-16T11:35:15;99439.00;;;31.80
65569;BMP180;52211;50.154;8.682;2022-08-16T11:38:13;99451.00;;;32.10
65569;BMP180;52211;50.154;8.682;2022-08-16T11:41:10;99446.00;;;32.40
65569;BMP180;52211;50.154;8.682;2022-08-16T11:43:40;99446.00;;;32.50
65569;BMP180;52211;50.154;8.682;2022-08-16T11:46:13;99442.00;;;32.70
65569;BMP180;52211;50.154;8.682;2022-08-16T11:49:04;99447.00;;;32.90
65569;BMP180;52211;50.154;8.682;2022-08-16T11:51:38;99445.00;;;33.10
65569;BMP180;52211;50.154;8.682;2022-08-16T11:54:09;99438.00;;;33.10
65569;BMP180;52211;50.154;8.682;2022-08-16T11:56:48;99437.00;;;33.20
65569;BMP180;52211;50.154;8.682;2022-08-16T11:59:23;99440.00;;;33.40
65569;BMP180;52211;50.154;8.682;2022-08-16T12:01:58;99444.00;;;33.50
65569;BMP180;52211;50.154;8.682;2022-08-16T12:04:45;99439.00;;;33.70
65569;BMP180;52211;50.154;8.682;2022-08-16T12:07:20;99446.00;;;33.90
65569;BMP180;52211;50.154;8.682;2022-08-16T12:09:55;99438.00;;;34.10
65569;BMP180;52211;50.154;8.682;2022-08-16T12:12:22;99439.00;;;34.40
65569;BMP180;52211;50.154;8.682;2022-08-16T12:14:50;99442.00;;;34.70
65569;BMP180;52211;50.154;8.682;2022-08-16T12:17:29;99438.00;;;34.90
65569;BMP180;52211;50.154;8.682;2022-08-16T12:20:03;99426.00;;;35.10
65569;BMP180;52211;50.154;8.682;2022-08-16T12:22:33;99436.00;;;35.20
65569;BMP180;52211;50.154;8.682;2022-08-16T12:25:13;99426.00;;;35.20
65569;BMP180;52211;50.154;8.682;2022-08-16T12:27:47;99431.00;;;35.40
65569;BMP180;52211;50.154;8.682;2022-08-16T12:30:22;99433.00;;;35.60
65569;BMP180;52211;50.154;8.682;2022-08-16T12:33:00;99433.00;;;35.80
65569;BMP180;52211;50.154;8.682;2022-08-16T12:35:37;99430.00;;;36.00
65569;BMP180;52211;50.154;8.682;2022-08-16T12:38:09;99432.00;;;36.20
65569;BMP180;52211;50.154;8.682;2022-08-16T12:41:00;99425.00;;;36.40
65569;BMP180;52211;50.154;8.682;2022-08-16T12:43:33;99436.00;;;36.50
65569;BMP180;52211;50.154;8.682;2022-08-16T12:46:02;99437.00;;;36.70
65569;BMP180;52211;50.154;8.682;2022-08-16T12:48:31;99435.00;;;37.00
65569;BMP180;52211;50.154;8.682;2022-08-16T12:51:21;99436.00;;;37.30
65569;BMP180;52211;50.154;8.682;2022-08-16T12:53:55;99441.00;;;37.50
65569;BMP180;52211;50.154;8.682;2022-08-16T12:56:30;99440.00;;;37.80
65569;BMP180;52211;50.154;8.682;2022-08-16T12:59:06;99433.00;;;38.10
65569;BMP180;52211;50.154;8.682;2022-08-16T13:01:37;99432.00;;;38.30
65569;BMP180;52211;50.154;8.682;2022-08-16T13:04:05;99433.00;;;38.60
65569;BMP180;52211;50.154;8.682;2022-08-16T13:06:46;99426.00;;;38.70
65569;BMP180;52211;50.154;8.682;2022-08-16T13:09:14;99429.00;;;38.80
65569;BMP180;52211;50.154;8.682;2022-08-16T13:12:09;99426.00;;;38.80
65569;BMP180;52211;50.154;8.682;2022-08-16T13:14:46;99417.00;;;38.90
65569;BMP180;52211;50.154;8.682;2022-08-16T13:17:24;99416.00;;;39.00
65569;BMP180;52211;50.154;8.682;2022-08-16T13:19:55;99419.00;;;39.20
65569;BMP180;52211;50.154;8.682;2022-08-16T13:23:05;99412.00;;;39.40
65569;BMP180;52211;50.154;8.682;2022-08-16T13:25:43;99417.00;;;39.60
65569;BMP180;52211;50.154;8.682;2022-08-16T13:28:17;99410.00;;;39.80
65569;BMP180;52211;50.154;8.682;2022-08-16T13:30:52;99415.00;;;40.10
65569;BMP180;52211;50.154;8.682;2022-08-16T13:33:37;99406.00;;;40.40
65569;BMP180;52211;50.154;8.682;2022-08-16T13:36:09;99411.00;;;40.60
65569;BMP180;52211;50.154;8.682;2022-08-16T13:38:51;99408.00;;;40.80
65569;BMP180;52211;50.154;8.682;2022-08-16T13:41:20;99406.00;;;40.80
65569;BMP180;52211;50.154;8.682;2022-08-16T13:43:47;99413.00;;;40.70
65569;BMP180;52211;50.154;8.682;2022-08-16T13:46:26;99413.00;;;40.50
65569;BMP180;52211;50.154;8.682;2022-08-16T13:48:56;99402.00;;;40.50
65569;BMP180;52211;50.154;8.682;2022-08-16T13:51:28;99406.00;;;40.70
65569;BMP180;52211;50.154;8.682;2022-08-16T13:54:00;99408.00;;;40.80
65569;BMP180;52211;50.154;8.682;2022-08-16T13:56:35;99413.00;;;41.00
65569;BMP180;52211;50.154;8.682;2022-08-16T13:59:11;99404.00;;;41.30
65569;BMP180;52211;50.154;8.682;2022-08-16T14:01:53;99409.00;;;41.50
65569;BMP180;52211;50.154;8.682;2022-08-16T14:04:34;99405.00;;;41.60
65569;BMP180;52211;50.154;8.682;2022-08-16T14:07:07;99408.00;;;41.70
65569;BMP180;52211;50.154;8.682;2022-08-16T14:09:40;99405.00;;;41.60
65569;BMP180;52211;50.154;8.682;2022-08-16T14:12:20;99398.00;;;41.40
65569;BMP180;52211;50.154;8.682;2022-08-16T14:14:50;99395.00;;;41.30
65569;BMP180;52211;50.154;8.682;2022-08-16T14:17:28;99400.00;;;41.30
65569;BMP180;52211;50.154;8.682;2022-08-16T14:19:57;99391.00;;;41.30
65569;BMP180;52211;50.154;8.682;2022-08-16T14:22:32;99390.00;;;41.30
65569;BMP180;52211;50.154;8.682;2022-08-16T14:25:13;99396.00;;;41.30
65569;BMP180;52211;50.154;8.682;2022-08-16T14:27:45;99389.00;;;41.30
65569;BMP180;52211;50.154;8.682;2022-08-16T14:30:18;99387.00;;;41.20
65569;BMP180;52211;50.154;8.682;2022-08-16T14:32:46;99394.00;;;41.10
65569;BMP180;52211;50.154;8.682;2022-08-16T14:35:26;99388.00;;;41.10
65569;BMP180;52211;50.154;8.682;2022-08-16T14:38:16;99393.00;;;41.40
65569;BMP180;52211;50.154;8.682;2022-08-16T14:40:52;99393.00;;;41.50
65569;BMP180;52211;50.154;8.682;2022-08-16T14:43:21;99386.00;;;41.70
65569;BMP180;52211;50.154;8.682;2022-08-16T14:45:51;99390.00;;;41.90
65569;BMP180;52211;50.154;8.682;2022-08-16T14:48:22;99387.00;;;42.00
65569;BMP180;52211;50.154;8.682;2022-08-16T14:50:55;99390.00;;;42.00
65569;BMP180;52211;50.154;8.682;2022-08-16T14:53:26;99377.00;;;41.90
65569;BMP180;52211;50.154;8.682;2022-08-16T14:55:59;99379.00;;;42.00
65569;BMP180;52211;50.154;8.682;2022-08-16T14:58:26;99379.00;;;42.10
65569;BMP180;52211;50.154;8.682;2022-08-16T15:01:06;99371.00;;;42.10
65569;BMP180;52211;50.154;8.682;2022-08-16T15:03:36;99371.00;;;42.20
65569;BMP180;52211;50.154;8.682;2022-08-16T15:06:09;99374.00;;;42.40
65569;BMP180;52211;50.154;8.682;2022-08-16T15:08:42;99366.00;;;42.60